Superferry II — SWKV — position and weather

sailwx.info

Track history (hours):
 
Tides and Currents Weather Stations Pressure Air Temp Water Temp Dewpoint Dewpoint Depression Visibility Wind Speed Wind Dir Waves Ship Positions

Superferry II

Last reported at 2017-Dec-11 16:32 UTC. Time now 2017-Dec-14 17:19 UTC.
Position N 37°56' E 024°24'.

Length 122 m; draft 4.7 m.

Type: Passenger vessel. MMSI: 237001000.

Date/timePositionNaut miles runAvg speedWind from/ knotsBaromVisibWave heightAir tempDewpointWater temp
2017-Dec-11 16:32N 37°56' E 024°24'118.9
2017-Dec-11 16:30N 37°56' E 024°25'1019.4
2017-Dec-11 16:00N 37°53' E 024°37'2914.6
2017-Dec-11 14:02N 37°30' E 024°57'120.1
2017-Dec-11 13:59N 37°29' E 024°57'2 4.1
2017-Dec-11 13:30N 37°27' E 024°59'1019.1
2017-Dec-11 13:00N 37°32' E 025°09'1 1.6
2017-Dec-11 12:31N 37°31' E 025°10'817.0
2017-Dec-11 12:01N 37°28' E 025°19'0 0.1
2017-Dec-11 11:29N 37°28' E 025°19'0 0.4
2017-Dec-11 11:00N 37°28' E 025°19'917.8
2017-Dec-11 10:30N 37°32' E 025°09'611.5
2017-Dec-11 10:00N 37°29' E 025°03'610.2
2017-Dec-11 09:26N 37°26' E 024°57'818.4
2017-Dec-11 09:00N 37°34' E 024°54'4416.0
2017-Dec-11 06:15N 37°59' E 024°09'519.8
2017-Dec-11 06:00N 38°01' E 024°03'2 0.1
2017-Dec-10 17:25N 38°01' E 024°01'1918.7
2017-Dec-10 16:24N 37°56' E 024°24'819.5
2017-Dec-10 16:00N 37°54' E 024°33'2413.1
2017-Dec-10 14:11N 37°36' E 024°53'819.6
2017-Dec-10 13:46N 37°29' E 024°57'2 7.8
2017-Dec-10 13:29N 37°26' E 024°57'816.2
2017-Dec-10 13:00N 37°30' E 025°05'4 7.8
2017-Dec-10 12:31N 37°32' E 025°09'918.3
2017-Dec-10 12:00N 37°28' E 025°20'0 0.1
2017-Dec-10 11:30N 37°28' E 025°20'1 2.8
2017-Dec-10 11:01N 37°28' E 025°18'815.8
2017-Dec-10 10:30N 37°32' E 025°09'713.5
2017-Dec-10 10:00N 37°29' E 025°02'5 9.4
2017-Dec-10 09:29N 37°26' E 024°57'4915.6
2017-Dec-10 06:19N 37°59' E 024°10'619.7
2017-Dec-10 06:00N 38°01' E 024°03'2 0.1
2017-Dec-09 17:39N 38°01' E 024°01'1 7.0
2017-Dec-09 17:30N 38°02' E 024°02'1619.4
2017-Dec-09 16:40N 37°57' E 024°22'318.8
2017-Dec-09 16:31N 37°56' E 024°25'1019.3
2017-Dec-09 15:59N 37°53' E 024°38'2213.9
2017-Dec-09 14:23N 37°35' E 024°54'719.6
2017-Dec-09 14:00N 37°28' E 024°57'2 3.8
2017-Dec-09 13:30N 37°27' E 024°60'918.4
2017-Dec-09 13:01N 37°32' E 025°10'4 7.6
2017-Dec-09 12:30N 37°30' E 025°13'510.5
2017-Dec-09 12:00N 37°28' E 025°19'4 8.2
2017-Dec-09 11:30N 37°29' E 025°14'510.3
2017-Dec-09 11:01N 37°32' E 025°09'2 4.4
2017-Dec-09 10:30N 37°31' E 025°07'913.2
2017-Dec-09 09:48N 37°26' E 024°57'2 6.6
2017-Dec-09 09:30N 37°28' E 024°57'1019.4
2017-Dec-09 09:00N 37°37' E 024°53'4215.4
2017-Dec-09 06:17N 37°59' E 024°08'619.0
2017-Dec-09 05:59N 38°01' E 024°01'0 0.0
2017-Dec-08 17:30N 38°01' E 024°01'1218.4
2017-Dec-08 16:50N 37°58' E 024°16'619.4
2017-Dec-08 16:30N 37°56' E 024°24'1019.5
2017-Dec-08 16:01N 37°54' E 024°36'3014.2
2017-Dec-08 13:56N 37°30' E 024°57'4 8.3
2017-Dec-08 13:29N 37°26' E 024°57'919.5
2017-Dec-08 13:00N 37°31' E 025°07'2 4.3
2017-Dec-08 12:31N 37°32' E 025°09'917.7
2017-Dec-08 12:01N 37°28' E 025°19'0 0.1
2017-Dec-08 11:31N 37°28' E 025°19'2 4.1
2017-Dec-08 11:01N 37°28' E 025°17'714.3
2017-Dec-08 10:30N 37°32' E 025°09'916.3
2017-Dec-08 09:58N 37°27' E 024°60'2 4.7
2017-Dec-08 09:31N 37°27' E 024°57'1019.4
2017-Dec-08 09:00N 37°36' E 024°53'1816.0
2017-Dec-08 07:52N 37°53' E 024°44'2618.1
2017-Dec-08 06:27N 37°59' E 024°12'919.6
2017-Dec-08 06:00N 38°01' E 024°01'0 0.0
2017-Dec-07 17:24N 38°01' E 024°01'1918.7
2017-Dec-07 16:24N 37°56' E 024°24'819.7
2017-Dec-07 16:00N 37°54' E 024°33'2312.8
2017-Dec-07 14:14N 37°37' E 024°53'720.4
2017-Dec-07 13:55N 37°31' E 024°56'511.2
2017-Dec-07 13:28N 37°26' E 024°57'816.8
2017-Dec-07 13:00N 37°30' E 025°05'4 7.3
2017-Dec-07 12:31N 37°32' E 025°09'918.4
2017-Dec-07 12:00N 37°28' E 025°20'0 0.0
2017-Dec-07 11:30N 37°28' E 025°20'0 0.7
2017-Dec-07 11:00N 37°28' E 025°19'917.9
2017-Dec-07 10:31N 37°32' E 025°09'611.6
2017-Dec-07 10:01N 37°29' E 025°03'610.4
2017-Dec-07 09:27N 37°26' E 024°57'819.0
2017-Dec-07 09:00N 37°34' E 024°54'4215.8
2017-Dec-07 06:19N 37°59' E 024°10'619.3
2017-Dec-07 06:00N 38°01' E 024°03'  
2017-Dec-04 10:30N 37°32' E 025°10'510.9
2017-Dec-04 10:00N 37°29' E 025°04'612.4
2017-Dec-04 09:30N 37°26' E 024°57'816.0
2017-Dec-04 09:00N 37°34' E 024°54'4415.9
2017-Dec-04 06:15N 37°59' E 024°09'519.6
2017-Dec-04 06:00N 38°01' E 024°03'2 0.1
2017-Dec-03 17:28N 38°01' E 024°01'917.3
2017-Dec-03 16:58N 37°59' E 024°11'919.3
2017-Dec-03 16:30N 37°56' E 024°22'918.7
2017-Dec-03 16:00N 37°54' E 024°34'2012.8
2017-Dec-03 14:24N 37°39' E 024°51'819.8
2017-Dec-03 13:59N 37°32' E 024°56'511.4
2017-Dec-03 13:30N 37°26' E 024°57'917.6
2017-Dec-03 13:01N 37°31' E 025°06'4 8.1
2017-Dec-03 12:30N 37°31' E 025°11'714.0
2017-Dec-03 12:00N 37°28' E 025°19'0 0.0
2017-Dec-03 11:30N 37°28' E 025°19'713.7
2017-Dec-03 11:00N 37°31' E 025°12'4 8.1
2017-Dec-03 10:31N 37°31' E 025°06'917.2
2017-Dec-03 09:59N 37°26' E 024°57'5 9.8
2017-Dec-03 09:30N 37°31' E 024°56'1219.2
2017-Dec-03 08:52N 37°42' E 024°49'719.0
2017-Dec-03 08:30N 37°49' E 024°46'5 8.7
2017-Dec-03 07:58N 37°53' E 024°44'1217.1
2017-Dec-03 07:17N 37°53' E 024°29'519.3
2017-Dec-03 07:01N 37°55' E 024°23'1219.1
2017-Dec-03 06:22N 37°59' E 024°08'616.1
2017-Dec-03 05:58N 38°01' E 024°01'0 0.0
2017-Dec-01 17:27N 38°01' E 024°01'1018.4
2017-Dec-01 16:54N 37°58' E 024°13'  
Track history (hours):
 
Tides and Currents Weather Stations Pressure Air Temp Water Temp Dewpoint Dewpoint Depression Visibility Wind Speed Wind Dir Waves Ship Positions

Superferry II

Last reported at 2017-Dec-11 16:32 UTC. Time now 2017-Dec-14 17:19 UTC.
Position N 37°56' E 024°24'.

Length 122 m; draft 4.7 m.

Type: Passenger vessel. MMSI: 237001000.

Date/timePositionNaut miles runAvg speedWind from/ knotsBaromVisibWave heightAir tempDewpointWater temp
2017-Dec-11 16:32N 37°56' E 024°24'118.9
2017-Dec-11 16:30N 37°56' E 024°25'1019.4
2017-Dec-11 16:00N 37°53' E 024°37'2914.6
2017-Dec-11 14:02N 37°30' E 024°57'120.1
2017-Dec-11 13:59N 37°29' E 024°57'2 4.1
2017-Dec-11 13:30N 37°27' E 024°59'1019.1
2017-Dec-11 13:00N 37°32' E 025°09'1 1.6
2017-Dec-11 12:31N 37°31' E 025°10'817.0
2017-Dec-11 12:01N 37°28' E 025°19'0 0.1
2017-Dec-11 11:29N 37°28' E 025°19'0 0.4
2017-Dec-11 11:00N 37°28' E 025°19'917.8
2017-Dec-11 10:30N 37°32' E 025°09'611.5
2017-Dec-11 10:00N 37°29' E 025°03'610.2
2017-Dec-11 09:26N 37°26' E 024°57'818.4
2017-Dec-11 09:00N 37°34' E 024°54'4416.0
2017-Dec-11 06:15N 37°59' E 024°09'519.8
2017-Dec-11 06:00N 38°01' E 024°03'2 0.1
2017-Dec-10 17:25N 38°01' E 024°01'1918.7
2017-Dec-10 16:24N 37°56' E 024°24'819.5
2017-Dec-10 16:00N 37°54' E 024°33'2413.1
2017-Dec-10 14:11N 37°36' E 024°53'819.6
2017-Dec-10 13:46N 37°29' E 024°57'2 7.8
2017-Dec-10 13:29N 37°26' E 024°57'816.2
2017-Dec-10 13:00N 37°30' E 025°05'4 7.8
2017-Dec-10 12:31N 37°32' E 025°09'918.3
2017-Dec-10 12:00N 37°28' E 025°20'0 0.1
2017-Dec-10 11:30N 37°28' E 025°20'1 2.8
2017-Dec-10 11:01N 37°28' E 025°18'815.8
2017-Dec-10 10:30N 37°32' E 025°09'713.5
2017-Dec-10 10:00N 37°29' E 025°02'5 9.4
2017-Dec-10 09:29N 37°26' E 024°57'4915.6
2017-Dec-10 06:19N 37°59' E 024°10'619.7
2017-Dec-10 06:00N 38°01' E 024°03'2 0.1
2017-Dec-09 17:39N 38°01' E 024°01'1 7.0
2017-Dec-09 17:30N 38°02' E 024°02'1619.4
2017-Dec-09 16:40N 37°57' E 024°22'318.8
2017-Dec-09 16:31N 37°56' E 024°25'1019.3
2017-Dec-09 15:59N 37°53' E 024°38'2213.9
2017-Dec-09 14:23N 37°35' E 024°54'719.6
2017-Dec-09 14:00N 37°28' E 024°57'2 3.8
2017-Dec-09 13:30N 37°27' E 024°60'918.4
2017-Dec-09 13:01N 37°32' E 025°10'4 7.6
2017-Dec-09 12:30N 37°30' E 025°13'510.5
2017-Dec-09 12:00N 37°28' E 025°19'4 8.2
2017-Dec-09 11:30N 37°29' E 025°14'510.3
2017-Dec-09 11:01N 37°32' E 025°09'2 4.4
2017-Dec-09 10:30N 37°31' E 025°07'913.2
2017-Dec-09 09:48N 37°26' E 024°57'2 6.6
2017-Dec-09 09:30N 37°28' E 024°57'1019.4
2017-Dec-09 09:00N 37°37' E 024°53'4215.4
2017-Dec-09 06:17N 37°59' E 024°08'619.0
2017-Dec-09 05:59N 38°01' E 024°01'0 0.0
2017-Dec-08 17:30N 38°01' E 024°01'1218.4
2017-Dec-08 16:50N 37°58' E 024°16'619.4
2017-Dec-08 16:30N 37°56' E 024°24'1019.5
2017-Dec-08 16:01N 37°54' E 024°36'3014.2
2017-Dec-08 13:56N 37°30' E 024°57'4 8.3
2017-Dec-08 13:29N 37°26' E 024°57'919.5
2017-Dec-08 13:00N 37°31' E 025°07'2 4.3
2017-Dec-08 12:31N 37°32' E 025°09'917.7
2017-Dec-08 12:01N 37°28' E 025°19'0 0.1
2017-Dec-08 11:31N 37°28' E 025°19'2 4.1
2017-Dec-08 11:01N 37°28' E 025°17'714.3
2017-Dec-08 10:30N 37°32' E 025°09'916.3
2017-Dec-08 09:58N 37°27' E 024°60'2 4.7
2017-Dec-08 09:31N 37°27' E 024°57'1019.4
2017-Dec-08 09:00N 37°36' E 024°53'1816.0
2017-Dec-08 07:52N 37°53' E 024°44'2618.1
2017-Dec-08 06:27N 37°59' E 024°12'919.6
2017-Dec-08 06:00N 38°01' E 024°01'0 0.0
2017-Dec-07 17:24N 38°01' E 024°01'1918.7
2017-Dec-07 16:24N 37°56' E 024°24'819.7
2017-Dec-07 16:00N 37°54' E 024°33'2312.8
2017-Dec-07 14:14N 37°37' E 024°53'720.4
2017-Dec-07 13:55N 37°31' E 024°56'511.2
2017-Dec-07 13:28N 37°26' E 024°57'816.8
2017-Dec-07 13:00N 37°30' E 025°05'4 7.3
2017-Dec-07 12:31N 37°32' E 025°09'918.4
2017-Dec-07 12:00N 37°28' E 025°20'0 0.0
2017-Dec-07 11:30N 37°28' E 025°20'0 0.7
2017-Dec-07 11:00N 37°28' E 025°19'917.9
2017-Dec-07 10:31N 37°32' E 025°09'611.6
2017-Dec-07 10:01N 37°29' E 025°03'610.4
2017-Dec-07 09:27N 37°26' E 024°57'819.0
2017-Dec-07 09:00N 37°34' E 024°54'4215.8
2017-Dec-07 06:19N 37°59' E 024°10'619.3
2017-Dec-07 06:00N 38°01' E 024°03'  
2017-Dec-04 10:30N 37°32' E 025°10'510.9
2017-Dec-04 10:00N 37°29' E 025°04'612.4
2017-Dec-04 09:30N 37°26' E 024°57'816.0
2017-Dec-04 09:00N 37°34' E 024°54'4415.9
2017-Dec-04 06:15N 37°59' E 024°09'519.6
2017-Dec-04 06:00N 38°01' E 024°03'2 0.1
2017-Dec-03 17:28N 38°01' E 024°01'917.3
2017-Dec-03 16:58N 37°59' E 024°11'919.3
2017-Dec-03 16:30N 37°56' E 024°22'918.7
2017-Dec-03 16:00N 37°54' E 024°34'2012.8
2017-Dec-03 14:24N 37°39' E 024°51'819.8
2017-Dec-03 13:59N 37°32' E 024°56'511.4
2017-Dec-03 13:30N 37°26' E 024°57'917.6
2017-Dec-03 13:01N 37°31' E 025°06'4 8.1
2017-Dec-03 12:30N 37°31' E 025°11'714.0
2017-Dec-03 12:00N 37°28' E 025°19'0 0.0
2017-Dec-03 11:30N 37°28' E 025°19'713.7
2017-Dec-03 11:00N 37°31' E 025°12'4 8.1
2017-Dec-03 10:31N 37°31' E 025°06'917.2
2017-Dec-03 09:59N 37°26' E 024°57'5 9.8
2017-Dec-03 09:30N 37°31' E 024°56'1219.2
2017-Dec-03 08:52N 37°42' E 024°49'719.0
2017-Dec-03 08:30N 37°49' E 024°46'5 8.7
2017-Dec-03 07:58N 37°53' E 024°44'1217.1
2017-Dec-03 07:17N 37°53' E 024°29'519.3
2017-Dec-03 07:01N 37°55' E 024°23'1219.1
2017-Dec-03 06:22N 37°59' E 024°08'616.1
2017-Dec-03 05:58N 38°01' E 024°01'0 0.0
2017-Dec-01 17:27N 38°01' E 024°01'1018.4
2017-Dec-01 16:54N 37°58' E 024°13'  

Dump ship's entire track history